sensor_id;sensor_type;location;lat;lon;timestamp;pressure;altitude;pressure_sealevel;temperature;humidity
79752;BME280;69234;47.446;21.636;2023-05-17T00:00:00;99831.03;;;16.92;88.75
79752;BME280;69234;47.446;21.636;2023-05-17T00:00:31;99834.59;;;16.93;88.81
79752;BME280;69234;47.446;21.636;2023-05-17T00:01:01;99830.19;;;16.92;89.02
79752;BME280;69234;47.446;21.636;2023-05-17T00:01:32;99830.66;;;16.95;87.92
79752;BME280;69234;47.446;21.636;2023-05-17T00:02:03;99836.25;;;16.94;88.37
79752;BME280;69234;47.446;21.636;2023-05-17T00:02:34;99831.88;;;16.93;88.30
79752;BME280;69234;47.446;21.636;2023-05-17T00:03:05;99825.81;;;16.91;87.90
79752;BME280;69234;47.446;21.636;2023-05-17T00:03:36;99831.72;;;16.94;88.54
79752;BME280;69234;47.446;21.636;2023-05-17T00:04:06;99830.84;;;16.94;87.88
79752;BME280;69234;47.446;21.636;2023-05-17T00:04:37;99827.66;;;16.90;88.14
79752;BME280;69234;47.446;21.636;2023-05-17T00:05:08;99824.78;;;16.92;88.42
79752;BME280;69234;47.446;21.636;2023-05-17T00:05:41;99828.13;;;16.94;88.06
79752;BME280;69234;47.446;21.636;2023-05-17T00:06:11;99828.13;;;16.94;87.78
79752;BME280;69234;47.446;21.636;2023-05-17T00:06:42;99823.09;;;16.91;88.80
79752;BME280;69234;47.446;21.636;2023-05-17T00:07:13;99825.81;;;16.91;88.60
79752;BME280;69234;47.446;21.636;2023-05-17T00:07:44;99828.53;;;16.91;88.34
79752;BME280;69234;47.446;21.636;2023-05-17T00:08:16;99826.44;;;16.93;88.32
79752;BME280;69234;47.446;21.636;2023-05-17T00:08:47;99820.56;;;16.89;87.88
79752;BME280;69234;47.446;21.636;2023-05-17T00:09:18;99819.50;;;16.90;88.16
79752;BME280;69234;47.446;21.636;2023-05-17T00:09:48;99819.72;;;16.88;88.72
79752;BME280;69234;47.446;21.636;2023-05-17T00:10:19;99823.47;;;16.87;88.07
79752;BME280;69234;47.446;21.636;2023-05-17T00:10:50;99824.31;;;16.88;88.20
79752;BME280;69234;47.446;21.636;2023-05-17T00:11:21;99820.06;;;16.85;88.39
79752;BME280;69234;47.446;21.636;2023-05-17T00:11:52;99822.63;;;16.87;88.93
79752;BME280;69234;47.446;21.636;2023-05-17T00:12:22;99816.53;;;16.85;88.86
79752;BME280;69234;47.446;21.636;2023-05-17T00:12:53;99820.06;;;16.85;88.58
79752;BME280;69234;47.446;21.636;2023-05-17T00:13:24;99821.75;;;16.86;89.01
79752;BME280;69234;47.446;21.636;2023-05-17T00:13:55;99826.34;;;16.86;88.74
79752;BME280;69234;47.446;21.636;2023-05-17T00:14:25;99826.72;;;16.83;88.87
79752;BME280;69234;47.446;21.636;2023-05-17T00:14:56;99829.41;;;16.83;88.20
79752;BME280;69234;47.446;21.636;2023-05-17T00:15:27;99824.19;;;16.81;89.11
79752;BME280;69234;47.446;21.636;2023-05-17T00:15:57;99825.22;;;16.80;88.07
79752;BME280;69234;47.446;21.636;2023-05-17T00:16:28;99830.47;;;16.82;88.62
79752;BME280;69234;47.446;21.636;2023-05-17T00:16:59;99828.78;;;16.81;88.85
79752;BME280;69234;47.446;21.636;2023-05-17T00:17:29;99831.50;;;16.81;88.96
79752;BME280;69234;47.446;21.636;2023-05-17T00:18:00;99819.50;;;16.75;88.26
79752;BME280;69234;47.446;21.636;2023-05-17T00:18:31;99823.72;;;16.78;89.46
79752;BME280;69234;47.446;21.636;2023-05-17T00:19:02;99827.06;;;16.80;88.46
79752;BME280;69234;47.446;21.636;2023-05-17T00:19:32;99832.50;;;16.80;89.19
79752;BME280;69234;47.446;21.636;2023-05-17T00:20:04;99830.19;;;16.77;88.57
79752;BME280;69234;47.446;21.636;2023-05-17T00:20:35;99828.78;;;16.81;88.80
79752;BME280;69234;47.446;21.636;2023-05-17T00:21:06;99831.50;;;16.81;88.74
79752;BME280;69234;47.446;21.636;2023-05-17T00:21:37;99828.09;;;16.79;88.40
79752;BME280;69234;47.446;21.636;2023-05-17T00:22:08;99826.44;;;16.78;88.68
79752;BME280;69234;47.446;21.636;2023-05-17T00:22:38;99831.84;;;16.78;89.42
79752;BME280;69234;47.446;21.636;2023-05-17T00:23:10;99833.53;;;16.79;88.75
79752;BME280;69234;47.446;21.636;2023-05-17T00:23:41;99827.94;;;16.80;89.36
79752;BME280;69234;47.446;21.636;2023-05-17T00:24:11;99835.22;;;16.80;88.54
79752;BME280;69234;47.446;21.636;2023-05-17T00:24:42;99832.50;;;16.80;88.96
79752;BME280;69234;47.446;21.636;2023-05-17T00:25:13;99836.09;;;16.80;88.33
79752;BME280;69234;47.446;21.636;2023-05-17T00:25:44;99836.72;;;16.82;89.20
79752;BME280;69234;47.446;21.636;2023-05-17T00:26:16;99835.03;;;16.81;88.36
79752;BME280;69234;47.446;21.636;2023-05-17T00:26:46;99834.84;;;16.83;88.44
79752;BME280;69234;47.446;21.636;2023-05-17T00:27:17;99836.72;;;16.82;88.65
79752;BME280;69234;47.446;21.636;2023-05-17T00:27:48;99842.16;;;16.82;88.80
79752;BME280;69234;47.446;21.636;2023-05-17T00:28:19;99829.41;;;16.83;89.01
79752;BME280;69234;47.446;21.636;2023-05-17T00:28:50;99829.63;;;16.81;89.31
79752;BME280;69234;47.446;21.636;2023-05-17T00:29:21;99833.38;;;16.80;88.46
79752;BME280;69234;47.446;21.636;2023-05-17T00:29:51;99837.09;;;16.79;89.27
79752;BME280;69234;47.446;21.636;2023-05-17T00:30:22;99840.28;;;16.83;89.17
79752;BME280;69234;47.446;21.636;2023-05-17T00:30:53;99840.09;;;16.84;89.06
79752;BME280;69234;47.446;21.636;2023-05-17T00:31:23;99834.22;;;16.81;88.80
79752;BME280;69234;47.446;21.636;2023-05-17T00:31:55;99832.81;;;16.85;88.27
79752;BME280;69234;47.446;21.636;2023-05-17T00:32:25;99838.44;;;16.83;88.75
79752;BME280;69234;47.446;21.636;2023-05-17T00:32:56;99837.38;;;16.84;nan
79752;BME280;69234;47.446;21.636;2023-05-17T00:33:27;99842.16;;;16.82;88.43
79752;BME280;69234;47.446;21.636;2023-05-17T00:33:57;99835.72;;;16.83;89.00
79752;BME280;69234;47.446;21.636;2023-05-17T00:34:28;99835.22;;;16.80;88.62
79752;BME280;69234;47.446;21.636;2023-05-17T00:34:59;99837.56;;;16.83;89.00
79752;BME280;69234;47.446;21.636;2023-05-17T00:35:30;99835.88;;;16.82;88.45
79752;BME280;69234;47.446;21.636;2023-05-17T00:36:00;99837.75;;;16.81;88.67
79752;BME280;69234;47.446;21.636;2023-05-17T00:36:31;99834.75;;;16.76;88.48
79752;BME280;69234;47.446;21.636;2023-05-17T00:37:02;99846.56;;;16.83;88.27
79752;BME280;69234;47.446;21.636;2023-05-17T00:37:33;99846.72;;;16.82;87.92
79752;BME280;69234;47.446;21.636;2023-05-17T00:38:03;99843.34;;;16.80;88.62
79752;BME280;69234;47.446;21.636;2023-05-17T00:38:34;99843.34;;;16.80;88.83
79752;BME280;69234;47.446;21.636;2023-05-17T00:39:05;99844.84;;;16.82;87.88
79752;BME280;69234;47.446;21.636;2023-05-17T00:39:36;99835.41;;;16.78;88.66
79752;BME280;69234;47.446;21.636;2023-05-17T00:40:08;99842.34;;;16.81;88.03
79752;BME280;69234;47.446;21.636;2023-05-17T00:40:39;99837.91;;;16.80;88.70
79752;BME280;69234;47.446;21.636;2023-05-17T00:41:10;99833.72;;;16.77;88.04
79752;BME280;69234;47.446;21.636;2023-05-17T00:41:42;99843.19;;;16.81;87.82
79752;BME280;69234;47.446;21.636;2023-05-17T00:42:14;99838.78;;;16.80;88.53
79752;BME280;69234;47.446;21.636;2023-05-17T00:42:45;99843.34;;;16.80;88.65
79752;BME280;69234;47.446;21.636;2023-05-17T00:43:16;99840.38;;;16.75;88.50
79752;BME280;69234;47.446;21.636;2023-05-17T00:43:46;99846.25;;;16.78;88.47
79752;BME280;69234;47.446;21.636;2023-05-17T00:44:17;99850.84;;;16.78;87.97
79752;BME280;69234;47.446;21.636;2023-05-17T00:44:48;99839.16;;;16.77;88.40
79752;BME280;69234;47.446;21.636;2023-05-17T00:45:19;99847.94;;;16.79;88.21
79752;BME280;69234;47.446;21.636;2023-05-17T00:45:49;99840.63;;;16.80;88.65
79752;BME280;69234;47.446;21.636;2023-05-17T00:46:21;99837.28;;;16.78;88.36
79752;BME280;69234;47.446;21.636;2023-05-17T00:46:52;99838.97;;;16.79;88.13
79752;BME280;69234;47.446;21.636;2023-05-17T00:47:22;99838.78;;;16.80;88.69
79752;BME280;69234;47.446;21.636;2023-05-17T00:47:55;99837.66;;;16.75;88.46
79752;BME280;69234;47.446;21.636;2023-05-17T00:48:27;99837.44;;;16.76;87.59
79752;BME280;69234;47.446;21.636;2023-05-17T00:48:59;99833.38;;;16.80;87.80
79752;BME280;69234;47.446;21.636;2023-05-17T00:49:30;99837.91;;;16.80;88.28
79752;BME280;69234;47.446;21.636;2023-05-17T00:50:01;99835.78;;;16.75;87.74
79752;BME280;69234;47.446;21.636;2023-05-17T00:50:33;99837.44;;;16.76;88.19
79752;BME280;69234;47.446;21.636;2023-05-17T00:51:03;99837.44;;;16.76;87.89
79752;BME280;69234;47.446;21.636;2023-05-17T00:51:36;99837.44;;;16.76;87.95
79752;BME280;69234;47.446;21.636;2023-05-17T00:52:07;99838.13;;;16.78;88.68
79752;BME280;69234;47.446;21.636;2023-05-17T00:52:39;99843.75;;;16.77;88.24
79752;BME280;69234;47.446;21.636;2023-05-17T00:53:11;99840.16;;;16.76;88.76
79752;BME280;69234;47.446;21.636;2023-05-17T00:53:46;99838.50;;;16.75;88.93
79752;BME280;69234;47.446;21.636;2023-05-17T00:54:17;99842.25;;;16.74;88.50
79752;BME280;69234;47.446;21.636;2023-05-17T00:54:49;99847.47;;;16.76;88.35
79752;BME280;69234;47.446;21.636;2023-05-17T00:55:21;99842.88;;;16.76;88.43
79752;BME280;69234;47.446;21.636;2023-05-17T00:55:52;99833.91;;;16.76;87.95
79752;BME280;69234;47.446;21.636;2023-05-17T00:56:24;99839.53;;;16.74;88.17
79752;BME280;69234;47.446;21.636;2023-05-17T00:56:55;99834.56;;;16.78;88.44
79752;BME280;69234;47.446;21.636;2023-05-17T00:57:27;99839.53;;;16.74;88.37
79752;BME280;69234;47.446;21.636;2023-05-17T00:57:59;99837.44;;;16.76;88.79
79752;BME280;69234;47.446;21.636;2023-05-17T00:58:30;99838.31;;;16.77;88.36
79752;BME280;69234;47.446;21.636;2023-05-17T00:59:04;99837.44;;;16.76;88.69
79752;BME280;69234;47.446;21.636;2023-05-17T00:59:37;99840.00;;;16.78;88.33
79752;BME280;69234;47.446;21.636;2023-05-17T01:00:08;99835.78;;;16.75;88.61
79752;BME280;69234;47.446;21.636;2023-05-17T01:00:40;99841.19;;;16.75;88.32
79752;BME280;69234;47.446;21.636;2023-05-17T01:01:11;99840.16;;;16.76;88.75
79752;BME280;69234;47.446;21.636;2023-05-17T01:01:43;99840.16;;;16.76;87.66
79752;BME280;69234;47.446;21.636;2023-05-17T01:02:16;99834.09;;;16.74;87.91
79752;BME280;69234;47.446;21.636;2023-05-17T01:02:47;99829.50;;;16.75;88.08
79752;BME280;69234;47.446;21.636;2023-05-17T01:03:18;99830.50;;;16.74;87.84
79752;BME280;69234;47.446;21.636;2023-05-17T01:03:49;99832.38;;;16.73;88.32
79752;BME280;69234;47.446;21.636;2023-05-17T01:04:19;99833.22;;;16.74;87.68
79752;BME280;69234;47.446;21.636;2023-05-17T01:04:50;99820.03;;;16.71;87.72
79752;BME280;69234;47.446;21.636;2023-05-17T01:05:21;99832.91;;;16.77;88.60
79752;BME280;69234;47.446;21.636;2023-05-17T01:05:52;99827.47;;;16.77;87.83
79752;BME280;69234;47.446;21.636;2023-05-17T01:06:23;99820.66;;;16.73;88.09
79752;BME280;69234;47.446;21.636;2023-05-17T01:06:54;99824.25;;;16.73;88.27
79752;BME280;69234;47.446;21.636;2023-05-17T01:07:25;99827.28;;;16.78;87.66
79752;BME280;69234;47.446;21.636;2023-05-17T01:07:56;99820.16;;;16.77;87.56
79752;BME280;69234;47.446;21.636;2023-05-17T01:08:27;99821.19;;;16.76;88.21
79752;BME280;69234;47.446;21.636;2023-05-17T01:08:58;99822.03;;;16.77;87.54
79752;BME280;69234;47.446;21.636;2023-05-17T01:09:29;99821.00;;;16.78;88.12
79752;BME280;69234;47.446;21.636;2023-05-17T01:10:00;99814.75;;;16.77;88.43
79752;BME280;69234;47.446;21.636;2023-05-17T01:10:52;99806.97;;;16.74;87.99
79752;BME280;69234;47.446;21.636;2023-05-17T01:13:39;99811.66;;;16.80;87.67
79752;BME280;69234;47.446;21.636;2023-05-17T01:15:47;99813.25;;;16.75;87.25
79752;BME280;69234;47.446;21.636;2023-05-17T01:16:40;99822.03;;;16.77;87.39
79752;BME280;69234;47.446;21.636;2023-05-17T01:17:21;99824.94;;;16.75;87.87
79752;BME280;69234;47.446;21.636;2023-05-17T01:18:27;99822.22;;;16.75;87.08
79752;BME280;69234;47.446;21.636;2023-05-17T01:19:37;99827.47;;;16.77;87.63
79752;BME280;69234;47.446;21.636;2023-05-17T01:20:25;99813.25;;;16.75;87.32
79752;BME280;69234;47.446;21.636;2023-05-17T01:21:00;99815.25;;;16.73;88.10
79752;BME280;69234;47.446;21.636;2023-05-17T01:23:47;99803.28;;;16.67;87.28
79752;BME280;69234;47.446;21.636;2023-05-17T01:26:27;99811.53;;;16.74;87.94
79752;BME280;69234;47.446;21.636;2023-05-17T01:26:59;99816.13;;;16.73;87.47
79752;BME280;69234;47.446;21.636;2023-05-17T01:27:32;99820.66;;;16.73;87.07
79752;BME280;69234;47.446;21.636;2023-05-17T01:28:07;99821.91;;;16.70;87.47
79752;BME280;69234;47.446;21.636;2023-05-17T01:28:44;99819.56;;;16.67;87.22
79752;BME280;69234;47.446;21.636;2023-05-17T01:29:18;99818.88;;;16.65;88.21
79752;BME280;69234;47.446;21.636;2023-05-17T01:29:55;99821.59;;;16.65;87.29
79752;BME280;69234;47.446;21.636;2023-05-17T01:30:28;99824.50;;;16.63;87.73
79752;BME280;69234;47.446;21.636;2023-05-17T01:31:01;99824.19;;;16.58;87.98
79752;BME280;69234;47.446;21.636;2023-05-17T01:31:35;99828.16;;;16.56;87.86
79752;BME280;69234;47.446;21.636;2023-05-17T01:32:07;99812.41;;;16.51;87.51
79752;BME280;69234;47.446;21.636;2023-05-17T01:32:40;99820.38;;;16.53;88.38
79752;BME280;69234;47.446;21.636;2023-05-17T01:33:13;99826.44;;;16.55;87.80
79752;BME280;69234;47.446;21.636;2023-05-17T01:33:45;99823.72;;;16.55;88.53
79752;BME280;69234;47.446;21.636;2023-05-17T01:34:26;99810.41;;;16.45;88.46
79752;BME280;69234;47.446;21.636;2023-05-17T01:34:57;99823.44;;;16.50;88.80
79752;BME280;69234;47.446;21.636;2023-05-17T01:35:28;99830.06;;;16.47;88.10
79752;BME280;69234;47.446;21.636;2023-05-17T01:35:59;99822.97;;;16.46;88.07
79752;BME280;69234;47.446;21.636;2023-05-17T01:36:30;99825.19;;;16.43;88.46
79752;BME280;69234;47.446;21.636;2023-05-17T01:37:00;99832.66;;;16.40;88.23
79752;BME280;69234;47.446;21.636;2023-05-17T01:37:31;99834.16;;;16.43;88.49
79752;BME280;69234;47.446;21.636;2023-05-17T01:38:02;99836.03;;;16.43;88.31
79752;BME280;69234;47.446;21.636;2023-05-17T01:38:34;99827.59;;;16.37;88.37
79752;BME280;69234;47.446;21.636;2023-05-17T01:39:05;99839.13;;;16.39;88.12
79752;BME280;69234;47.446;21.636;2023-05-17T01:39:36;99838.44;;;16.37;89.42
79752;BME280;69234;47.446;21.636;2023-05-17T01:40:08;99832.53;;;16.34;89.47
79752;BME280;69234;47.446;21.636;2023-05-17T01:41:35;99845.25;;;16.33;88.66
79752;BME280;69234;47.446;21.636;2023-05-17T01:41:39;99838.81;;;16.34;88.54
79752;BME280;69234;47.446;21.636;2023-05-17T01:42:22;99846.28;;;16.32;89.41
79752;BME280;69234;47.446;21.636;2023-05-17T01:43:15;99840.50;;;16.35;89.06
79752;BME280;69234;47.446;21.636;2023-05-17T01:44:17;99837.44;;;16.38;89.33
79752;BME280;69234;47.446;21.636;2023-05-17T01:45:30;99831.81;;;16.40;88.18
79752;BME280;69234;47.446;21.636;2023-05-17T01:46:25;99834.72;;;16.38;88.48
79752;BME280;69234;47.446;21.636;2023-05-17T01:47:23;99834.34;;;16.41;88.21
79752;BME280;69234;47.446;21.636;2023-05-17T01:48:24;99826.59;;;16.38;87.88
79752;BME280;69234;47.446;21.636;2023-05-17T01:49:36;99838.91;;;16.41;88.19
79752;BME280;69234;47.446;21.636;2023-05-17T01:50:09;99833.50;;;16.41;88.23
79752;BME280;69234;47.446;21.636;2023-05-17T01:50:46;99831.81;;;16.40;87.74
79752;BME280;69234;47.446;21.636;2023-05-17T01:51:23;99828.44;;;16.38;87.75
79752;BME280;69234;47.446;21.636;2023-05-17T01:53:19;99833.03;;;16.37;88.78
79752;BME280;69234;47.446;21.636;2023-05-17T01:54:03;99832.19;;;16.37;88.41
79752;BME280;69234;47.446;21.636;2023-05-17T01:55:07;99837.81;;;16.35;88.19
79752;BME280;69234;47.446;21.636;2023-05-17T01:55:55;99842.75;;;16.32;88.82
79752;BME280;69234;47.446;21.636;2023-05-17T01:56:33;99845.44;;;16.32;89.02
79752;BME280;69234;47.446;21.636;2023-05-17T01:57:05;99839.56;;;16.28;89.14
79752;BME280;69234;47.446;21.636;2023-05-17T01:57:42;99840.56;;;16.27;88.87
79752;BME280;69234;47.446;21.636;2023-05-17T01:58:15;99845.97;;;16.27;89.22
79752;BME280;69234;47.446;21.636;2023-05-17T01:58:47;99840.06;;;16.24;89.87
79752;BME280;69234;47.446;21.636;2023-05-17T01:59:21;99844.28;;;16.26;88.75
79752;BME280;69234;47.446;21.636;2023-05-17T01:59:58;99840.91;;;16.24;89.53
79752;BME280;69234;47.446;21.636;2023-05-17T02:00:33;99845.50;;;16.24;89.22
79752;BME280;69234;47.446;21.636;2023-05-17T02:01:06;99842.31;;;16.20;88.86
79752;BME280;69234;47.446;21.636;2023-05-17T02:01:39;99835.28;;;16.11;88.94
79752;BME280;69234;47.446;21.636;2023-05-17T02:02:11;99840.50;;;16.12;89.73
79752;BME280;69234;47.446;21.636;2023-05-17T02:02:43;99842.00;;;16.15;89.15
79752;BME280;69234;47.446;21.636;2023-05-17T02:03:18;99842.00;;;16.15;88.86
79752;BME280;69234;47.446;21.636;2023-05-17T02:03:49;99840.16;;;16.15;89.39
79752;BME280;69234;47.446;21.636;2023-05-17T02:04:20;99844.72;;;16.15;89.44
79752;BME280;69234;47.446;21.636;2023-05-17T02:04:51;99842.66;;;16.17;89.59
79752;BME280;69234;47.446;21.636;2023-05-17T02:05:22;99845.22;;;16.19;88.84
79752;BME280;69234;47.446;21.636;2023-05-17T02:05:52;99843.53;;;16.17;89.68
79752;BME280;69234;47.446;21.636;2023-05-17T02:06:23;99842.00;;;16.15;89.11
79752;BME280;69234;47.446;21.636;2023-05-17T02:07:09;99838.63;;;16.13;89.67
79752;BME280;69234;47.446;21.636;2023-05-17T02:07:40;99839.66;;;16.12;89.34
79752;BME280;69234;47.446;21.636;2023-05-17T02:08:11;99833.28;;;16.05;89.38
79752;BME280;69234;47.446;21.636;2023-05-17T02:08:42;99842.72;;;16.09;89.41
79752;BME280;69234;47.446;21.636;2023-05-17T02:09:13;99845.44;;;16.09;89.26
79752;BME280;69234;47.446;21.636;2023-05-17T02:09:44;99846.28;;;16.09;89.22
79752;BME280;69234;47.446;21.636;2023-05-17T02:10:15;99842.72;;;16.09;89.65
79752;BME280;69234;47.446;21.636;2023-05-17T02:10:46;99844.41;;;16.10;89.40
79752;BME280;69234;47.446;21.636;2023-05-17T02:11:17;99840.84;;;16.09;89.25
79752;BME280;69234;47.446;21.636;2023-05-17T02:11:48;99841.53;;;16.11;89.05
79752;BME280;69234;47.446;21.636;2023-05-17T02:12:18;99834.59;;;16.09;89.32
79752;BME280;69234;47.446;21.636;2023-05-17T02:12:49;99845.06;;;16.12;89.05
79752;BME280;69234;47.446;21.636;2023-05-17T02:13:20;99839.66;;;16.12;89.18
79752;BME280;69234;47.446;21.636;2023-05-17T02:13:51;99841.34;;;16.13;89.21
79752;BME280;69234;47.446;21.636;2023-05-17T02:14:21;99832.56;;;16.11;89.74
79752;BME280;69234;47.446;21.636;2023-05-17T02:14:52;99838.81;;;16.11;89.71
79752;BME280;69234;47.446;21.636;2023-05-17T02:15:23;99844.03;;;16.13;89.08
79752;BME280;69234;47.446;21.636;2023-05-17T02:15:54;99844.25;;;16.11;89.65
79752;BME280;69234;47.446;21.636;2023-05-17T02:16:25;99836.13;;;16.11;88.78
79752;BME280;69234;47.446;21.636;2023-05-17T02:16:55;99841.53;;;16.11;89.02
79752;BME280;69234;47.446;21.636;2023-05-17T02:17:26;99838.97;;;16.10;89.25
79752;BME280;69234;47.446;21.636;2023-05-17T02:17:57;99845.06;;;16.12;88.79
79752;BME280;69234;47.446;21.636;2023-05-17T02:18:27;99840.00;;;16.09;89.16
79752;BME280;69234;47.446;21.636;2023-05-17T02:18:58;99840.84;;;16.09;89.27
79752;BME280;69234;47.446;21.636;2023-05-17T02:19:29;99838.34;;;16.08;89.57
79752;BME280;69234;47.446;21.636;2023-05-17T02:20:00;99843.75;;;16.08;89.59
79752;BME280;69234;47.446;21.636;2023-05-17T02:20:31;99842.72;;;16.09;89.48
79752;BME280;69234;47.446;21.636;2023-05-17T02:21:03;99835.63;;;16.08;89.74
79752;BME280;69234;47.446;21.636;2023-05-17T02:21:36;99840.00;;;16.09;89.14
79752;BME280;69234;47.446;21.636;2023-05-17T02:22:07;99832.25;;;16.06;89.43
79752;BME280;69234;47.446;21.636;2023-05-17T02:22:38;99837.66;;;16.06;89.30
79752;BME280;69234;47.446;21.636;2023-05-17T02:23:08;99835.31;;;16.03;90.05
79752;BME280;69234;47.446;21.636;2023-05-17T02:23:39;99837.03;;;16.04;90.03
79752;BME280;69234;47.446;21.636;2023-05-17T02:24:10;99834.13;;;16.05;89.18
79752;BME280;69234;47.446;21.636;2023-05-17T02:24:42;99831.22;;;16.07;90.08
79752;BME280;69234;47.446;21.636;2023-05-17T02:25:13;99834.13;;;16.05;90.24
79752;BME280;69234;47.446;21.636;2023-05-17T02:25:44;99836.81;;;16.05;89.15
79752;BME280;69234;47.446;21.636;2023-05-17T02:26:14;99837.66;;;16.06;90.07
79752;BME280;69234;47.446;21.636;2023-05-17T02:26:45;99831.88;;;16.09;89.44
79752;BME280;69234;47.446;21.636;2023-05-17T02:27:16;99830.22;;;16.08;90.07
79752;BME280;69234;47.446;21.636;2023-05-17T02:27:47;99837.31;;;16.09;89.35
79752;BME280;69234;47.446;21.636;2023-05-17T02:28:18;99836.28;;;16.10;89.73
79752;BME280;69234;47.446;21.636;2023-05-17T02:28:48;99840.84;;;16.09;89.16
79752;BME280;69234;47.446;21.636;2023-05-17T02:29:19;99836.28;;;16.10;90.10
79752;BME280;69234;47.446;21.636;2023-05-17T02:29:50;99838.97;;;16.10;89.93
79752;BME280;69234;47.446;21.636;2023-05-17T02:30:21;99838.97;;;16.10;89.13
79752;BME280;69234;47.446;21.636;2023-05-17T02:30:54;99844.41;;;16.10;89.17
79752;BME280;69234;47.446;21.636;2023-05-17T02:31:25;99841.88;;;16.08;89.89
79752;BME280;69234;47.446;21.636;2023-05-17T02:31:56;99844.13;;;16.05;90.33
79752;BME280;69234;47.446;21.636;2023-05-17T02:32:27;99845.16;;;16.04;90.26
79752;BME280;69234;47.446;21.636;2023-05-17T02:32:58;99844.13;;;16.05;90.28
79752;BME280;69234;47.446;21.636;2023-05-17T02:33:29;99844.47;;;16.02;90.02
79752;BME280;69234;47.446;21.636;2023-05-17T02:34:00;99842.44;;;16.04;89.79
79752;BME280;69234;47.446;21.636;2023-05-17T02:34:31;99849.53;;;16.05;90.41
79752;BME280;69234;47.446;21.636;2023-05-17T02:35:01;99840.72;;;16.03;89.56
79752;BME280;69234;47.446;21.636;2023-05-17T02:35:32;99846.63;;;16.06;90.39
79752;BME280;69234;47.446;21.636;2023-05-17T02:36:03;99847.84;;;16.04;89.91
79752;BME280;69234;47.446;21.636;2023-05-17T02:36:34;99855.59;;;16.07;89.68
79752;BME280;69234;47.446;21.636;2023-05-17T02:37:05;99852.88;;;16.07;89.77
79752;BME280;69234;47.446;21.636;2023-05-17T02:37:36;99854.75;;;16.06;89.50
79752;BME280;69234;47.446;21.636;2023-05-17T02:38:07;99851.88;;;16.08;90.17
79752;BME280;69234;47.446;21.636;2023-05-17T02:38:37;99842.25;;;16.05;90.20
79752;BME280;69234;47.446;21.636;2023-05-17T02:39:09;99844.59;;;16.08;89.50
79752;BME280;69234;47.446;21.636;2023-05-17T02:39:41;99851.06;;;16.07;90.36
79752;BME280;69234;47.446;21.636;2023-05-17T02:40:12;99857.94;;;16.10;89.44
79752;BME280;69234;47.446;21.636;2023-05-17T02:40:43;99853.56;;;16.09;90.36
79752;BME280;69234;47.446;21.636;2023-05-17T02:41:14;99850.00;;;16.08;89.50
79752;BME280;69234;47.446;21.636;2023-05-17T02:41:44;99848.34;;;16.07;89.83
79752;BME280;69234;47.446;21.636;2023-05-17T02:42:15;99851.06;;;16.07;89.27
79752;BME280;69234;47.446;21.636;2023-05-17T02:42:46;99846.63;;;16.06;90.14
79752;BME280;69234;47.446;21.636;2023-05-17T02:43:17;99854.41;;;16.09;89.41
79752;BME280;69234;47.446;21.636;2023-05-17T02:43:48;99849.81;;;16.10;90.26
79752;BME280;69234;47.446;21.636;2023-05-17T02:44:18;99853.38;;;16.10;89.69
79752;BME280;69234;47.446;21.636;2023-05-17T02:44:49;99848.81;;;16.11;89.33
79752;BME280;69234;47.446;21.636;2023-05-17T02:45:22;99855.25;;;16.10;89.73
79752;BME280;69234;47.446;21.636;2023-05-17T02:45:53;99856.09;;;16.10;89.59
79752;BME280;69234;47.446;21.636;2023-05-17T02:46:23;99856.94;;;16.11;90.11
79752;BME280;69234;47.446;21.636;2023-05-17T02:46:54;99860.00;;;16.08;89.74
79752;BME280;69234;47.446;21.636;2023-05-17T02:47:25;99858.50;;;16.05;89.67
79752;BME280;69234;47.446;21.636;2023-05-17T02:47:55;99866.81;;;16.04;90.42
79752;BME280;69234;47.446;21.636;2023-05-17T02:48:26;99869.53;;;16.04;89.85
79752;BME280;69234;47.446;21.636;2023-05-17T02:48:57;99873.25;;;16.03;90.67
79752;BME280;69234;47.446;21.636;2023-05-17T02:49:28;99867.16;;;16.01;90.72
79752;BME280;69234;47.446;21.636;2023-05-17T02:49:58;99869.53;;;16.04;89.89
79752;BME280;69234;47.446;21.636;2023-05-17T02:50:29;99866.81;;;16.04;90.62
79752;BME280;69234;47.446;21.636;2023-05-17T02:51:01;99862.41;;;16.03;90.67
79752;BME280;69234;47.446;21.636;2023-05-17T02:51:31;99858.84;;;16.02;90.73
79752;BME280;69234;47.446;21.636;2023-05-17T02:52:02;99860.00;;;16.08;90.20
79752;BME280;69234;47.446;21.636;2023-05-17T02:52:33;99865.44;;;16.08;90.43
79752;BME280;69234;47.446;21.636;2023-05-17T02:53:04;99869.81;;;16.09;89.92
79752;BME280;69234;47.446;21.636;2023-05-17T02:53:35;99870.00;;;16.07;90.65
79752;BME280;69234;47.446;21.636;2023-05-17T02:54:06;99870.66;;;16.09;90.10
79752;BME280;69234;47.446;21.636;2023-05-17T02:54:37;99876.28;;;16.08;90.28
79752;BME280;69234;47.446;21.636;2023-05-17T02:55:08;99873.56;;;16.08;90.17
79752;BME280;69234;47.446;21.636;2023-05-17T02:55:39;99874.56;;;16.07;90.75
79752;BME280;69234;47.446;21.636;2023-05-17T02:56:10;99879.81;;;16.08;90.40
79752;BME280;69234;47.446;21.636;2023-05-17T02:56:41;99880.47;;;16.10;90.05
79752;BME280;69234;47.446;21.636;2023-05-17T02:57:13;99871.50;;;16.10;90.25
79752;BME280;69234;47.446;21.636;2023-05-17T02:57:43;99874.69;;;16.13;90.02
79752;BME280;69234;47.446;21.636;2023-05-17T02:58:15;99878.25;;;16.14;89.44
79752;BME280;69234;47.446;21.636;2023-05-17T02:58:45;99882.66;;;16.15;90.06
79752;BME280;69234;47.446;21.636;2023-05-17T02:59:16;99887.03;;;16.16;90.62
79752;BME280;69234;47.446;21.636;2023-05-17T02:59:47;99889.75;;;16.16;89.79
79752;BME280;69234;47.446;21.636;2023-05-17T03:00:18;99888.06;;;16.15;89.71
79752;BME280;69234;47.446;21.636;2023-05-17T03:00:50;99888.91;;;16.15;90.03
79752;BME280;69234;47.446;21.636;2023-05-17T03:01:21;99886.22;;;16.15;90.11